sensor_id;sensor_type;location;lat;lon;timestamp;P1;durP1;ratioP1;P2;durP2;ratioP2
62798;SDS011;48842;51.046;13.796;2023-02-28T00:00:21;7.57;;;5.88;;
62798;SDS011;48842;51.046;13.796;2023-02-28T00:02:47;5.60;;;4.90;;
62798;SDS011;48842;51.046;13.796;2023-02-28T00:05:13;6.67;;;5.60;;
62798;SDS011;48842;51.046;13.796;2023-02-28T00:07:40;5.35;;;4.80;;
62798;SDS011;48842;51.046;13.796;2023-02-28T00:10:07;9.18;;;4.68;;
62798;SDS011;48842;51.046;13.796;2023-02-28T00:12:35;6.55;;;5.32;;
62798;SDS011;48842;51.046;13.796;2023-02-28T00:15:01;7.43;;;4.97;;
62798;SDS011;48842;51.046;13.796;2023-02-28T00:17:27;7.97;;;5.65;;
62798;SDS011;48842;51.046;13.796;2023-02-28T00:19:52;6.07;;;4.80;;
62798;SDS011;48842;51.046;13.796;2023-02-28T00:22:18;8.50;;;5.37;;
62798;SDS011;48842;51.046;13.796;2023-02-28T00:24:44;8.52;;;6.20;;
62798;SDS011;48842;51.046;13.796;2023-02-28T00:27:10;8.60;;;5.50;;
62798;SDS011;48842;51.046;13.796;2023-02-28T00:29:36;7.07;;;5.03;;
62798;SDS011;48842;51.046;13.796;2023-02-28T00:32:02;11.47;;;5.40;;
62798;SDS011;48842;51.046;13.796;2023-02-28T00:34:27;9.57;;;5.87;;
62798;SDS011;48842;51.046;13.796;2023-02-28T00:36:52;8.03;;;5.50;;
62798;SDS011;48842;51.046;13.796;2023-02-28T00:39:18;5.80;;;5.30;;
62798;SDS011;48842;51.046;13.796;2023-02-28T00:41:43;9.77;;;5.63;;
62798;SDS011;48842;51.046;13.796;2023-02-28T00:44:08;6.20;;;4.80;;
62798;SDS011;48842;51.046;13.796;2023-02-28T00:46:34;5.23;;;4.80;;
62798;SDS011;48842;51.046;13.796;2023-02-28T00:48:59;5.60;;;5.07;;
62798;SDS011;48842;51.046;13.796;2023-02-28T00:51:24;5.80;;;5.30;;
62798;SDS011;48842;51.046;13.796;2023-02-28T00:53:49;6.83;;;4.87;;
62798;SDS011;48842;51.046;13.796;2023-02-28T00:56:15;7.67;;;5.90;;
62798;SDS011;48842;51.046;13.796;2023-02-28T00:58:40;6.30;;;5.70;;
62798;SDS011;48842;51.046;13.796;2023-02-28T01:01:05;5.70;;;5.10;;
62798;SDS011;48842;51.046;13.796;2023-02-28T01:03:31;8.67;;;5.07;;
62798;SDS011;48842;51.046;13.796;2023-02-28T01:05:56;11.87;;;5.93;;
62798;SDS011;48842;51.046;13.796;2023-02-28T01:08:22;5.53;;;5.03;;
62798;SDS011;48842;51.046;13.796;2023-02-28T01:10:47;5.37;;;4.83;;
62798;SDS011;48842;51.046;13.796;2023-02-28T01:13:13;7.17;;;5.37;;
62798;SDS011;48842;51.046;13.796;2023-02-28T01:15:42;5.43;;;4.93;;
62798;SDS011;48842;51.046;13.796;2023-02-28T01:18:13;6.78;;;5.20;;
62798;SDS011;48842;51.046;13.796;2023-02-28T01:20:38;6.23;;;5.63;;
62798;SDS011;48842;51.046;13.796;2023-02-28T01:23:04;10.10;;;4.87;;
62798;SDS011;48842;51.046;13.796;2023-02-28T01:25:29;5.83;;;5.13;;
62798;SDS011;48842;51.046;13.796;2023-02-28T01:27:54;5.07;;;4.57;;
62798;SDS011;48842;51.046;13.796;2023-02-28T01:30:20;13.23;;;5.90;;
62798;SDS011;48842;51.046;13.796;2023-02-28T01:32:45;6.50;;;5.13;;
62798;SDS011;48842;51.046;13.796;2023-02-28T01:35:10;7.50;;;5.17;;
62798;SDS011;48842;51.046;13.796;2023-02-28T01:37:35;5.97;;;5.37;;
62798;SDS011;48842;51.046;13.796;2023-02-28T01:40:01;5.33;;;4.83;;
62798;SDS011;48842;51.046;13.796;2023-02-28T01:42:26;7.20;;;4.93;;
62798;SDS011;48842;51.046;13.796;2023-02-28T01:44:57;5.60;;;5.03;;
62798;SDS011;48842;51.046;13.796;2023-02-28T01:47:32;7.13;;;5.82;;
62798;SDS011;48842;51.046;13.796;2023-02-28T01:49:59;6.43;;;4.80;;
62798;SDS011;48842;51.046;13.796;2023-02-28T01:52:27;6.15;;;5.05;;
62798;SDS011;48842;51.046;13.796;2023-02-28T01:54:56;7.10;;;4.78;;
62798;SDS011;48842;51.046;13.796;2023-02-28T01:57:27;6.00;;;4.70;;
62798;SDS011;48842;51.046;13.796;2023-02-28T02:00:04;6.63;;;4.88;;
62798;SDS011;48842;51.046;13.796;2023-02-28T02:02:33;7.50;;;4.75;;
62798;SDS011;48842;51.046;13.796;2023-02-28T02:05:00;7.63;;;5.37;;
62798;SDS011;48842;51.046;13.796;2023-02-28T02:07:31;7.53;;;5.75;;
62798;SDS011;48842;51.046;13.796;2023-02-28T02:10:00;6.00;;;5.40;;
62798;SDS011;48842;51.046;13.796;2023-02-28T02:12:45;6.03;;;5.05;;
62798;SDS011;48842;51.046;13.796;2023-02-28T02:15:28;7.28;;;6.05;;
62798;SDS011;48842;51.046;13.796;2023-02-28T02:17:58;6.65;;;5.95;;
62798;SDS011;48842;51.046;13.796;2023-02-28T02:23:02;7.13;;;5.72;;
62798;SDS011;48842;51.046;13.796;2023-02-28T02:25:53;6.40;;;4.95;;
62798;SDS011;48842;51.046;13.796;2023-02-28T02:28:33;8.35;;;5.63;;
62798;SDS011;48842;51.046;13.796;2023-02-28T02:31:23;7.45;;;6.47;;
62798;SDS011;48842;51.046;13.796;2023-02-28T02:36:38;5.90;;;5.32;;
62798;SDS011;48842;51.046;13.796;2023-02-28T02:39:15;7.38;;;6.18;;
62798;SDS011;48842;51.046;13.796;2023-02-28T02:41:49;6.07;;;5.35;;
62798;SDS011;48842;51.046;13.796;2023-02-28T02:44:19;7.88;;;5.13;;
62798;SDS011;48842;51.046;13.796;2023-02-28T02:46:55;6.82;;;6.22;;
62798;SDS011;48842;51.046;13.796;2023-02-28T02:49:28;7.57;;;5.60;;
62798;SDS011;48842;51.046;13.796;2023-02-28T02:51:56;9.25;;;5.82;;
62798;SDS011;48842;51.046;13.796;2023-02-28T02:54:27;5.57;;;4.93;;
62798;SDS011;48842;51.046;13.796;2023-02-28T02:57:00;8.05;;;5.35;;
62798;SDS011;48842;51.046;13.796;2023-02-28T02:59:30;7.97;;;6.15;;
62798;SDS011;48842;51.046;13.796;2023-02-28T03:01:59;7.03;;;5.88;;
62798;SDS011;48842;51.046;13.796;2023-02-28T03:04:27;8.10;;;6.47;;
62798;SDS011;48842;51.046;13.796;2023-02-28T03:06:58;10.38;;;6.57;;
62798;SDS011;48842;51.046;13.796;2023-02-28T03:09:24;7.00;;;6.40;;
62798;SDS011;48842;51.046;13.796;2023-02-28T03:11:51;10.43;;;7.95;;
62798;SDS011;48842;51.046;13.796;2023-02-28T03:14:26;6.57;;;5.95;;
62798;SDS011;48842;51.046;13.796;2023-02-28T03:17:24;8.23;;;6.10;;
62798;SDS011;48842;51.046;13.796;2023-02-28T03:20:03;6.40;;;5.78;;
62798;SDS011;48842;51.046;13.796;2023-02-28T03:22:51;8.27;;;6.95;;
62798;SDS011;48842;51.046;13.796;2023-02-28T03:30:59;9.65;;;6.95;;
62798;SDS011;48842;51.046;13.796;2023-02-28T03:33:35;9.35;;;7.50;;
62798;SDS011;48842;51.046;13.796;2023-02-28T03:36:10;7.65;;;6.70;;
62798;SDS011;48842;51.046;13.796;2023-02-28T03:38:43;9.00;;;7.60;;
62798;SDS011;48842;51.046;13.796;2023-02-28T03:41:13;8.50;;;7.70;;
62798;SDS011;48842;51.046;13.796;2023-02-28T03:43:45;8.05;;;7.25;;
62798;SDS011;48842;51.046;13.796;2023-02-28T03:46:18;11.30;;;8.32;;
62798;SDS011;48842;51.046;13.796;2023-02-28T03:48:49;9.68;;;7.45;;
62798;SDS011;48842;51.046;13.796;2023-02-28T03:51:18;12.55;;;7.55;;
62798;SDS011;48842;51.046;13.796;2023-02-28T03:53:50;14.43;;;7.80;;
62798;SDS011;48842;51.046;13.796;2023-02-28T03:56:22;9.73;;;7.88;;
62798;SDS011;48842;51.046;13.796;2023-02-28T03:58:55;9.77;;;7.35;;
62798;SDS011;48842;51.046;13.796;2023-02-28T04:01:32;8.02;;;6.60;;
62798;SDS011;48842;51.046;13.796;2023-02-28T04:04:01;12.63;;;8.60;;
62798;SDS011;48842;51.046;13.796;2023-02-28T04:06:27;20.08;;;8.10;;
62798;SDS011;48842;51.046;13.796;2023-02-28T04:08:56;10.65;;;7.50;;
62798;SDS011;48842;51.046;13.796;2023-02-28T04:11:32;8.97;;;7.87;;
62798;SDS011;48842;51.046;13.796;2023-02-28T04:14:03;8.75;;;7.85;;
62798;SDS011;48842;51.046;13.796;2023-02-28T04:16:30;8.80;;;7.90;;
62798;SDS011;48842;51.046;13.796;2023-02-28T04:18:55;11.30;;;8.25;;
62798;SDS011;48842;51.046;13.796;2023-02-28T04:21:50;10.82;;;8.65;;
62798;SDS011;48842;51.046;13.796;2023-02-28T04:24:16;9.52;;;7.70;;
62798;SDS011;48842;51.046;13.796;2023-02-28T04:26:47;9.32;;;8.05;;
62798;SDS011;48842;51.046;13.796;2023-02-28T04:29:22;9.45;;;8.32;;
62798;SDS011;48842;51.046;13.796;2023-02-28T04:31:48;12.35;;;8.70;;
62798;SDS011;48842;51.046;13.796;2023-02-28T04:34:13;10.80;;;8.03;;
62798;SDS011;48842;51.046;13.796;2023-02-28T04:36:38;10.73;;;7.83;;
62798;SDS011;48842;51.046;13.796;2023-02-28T04:39:04;11.53;;;8.60;;
62798;SDS011;48842;51.046;13.796;2023-02-28T04:41:29;10.47;;;9.00;;
62798;SDS011;48842;51.046;13.796;2023-02-28T04:43:54;10.50;;;8.33;;
62798;SDS011;48842;51.046;13.796;2023-02-28T04:46:21;13.63;;;10.15;;
62798;SDS011;48842;51.046;13.796;2023-02-28T04:48:47;10.77;;;8.55;;
62798;SDS011;48842;51.046;13.796;2023-02-28T04:51:13;10.87;;;8.70;;
62798;SDS011;48842;51.046;13.796;2023-02-28T04:53:40;11.70;;;9.25;;
62798;SDS011;48842;51.046;13.796;2023-02-28T04:56:06;10.93;;;9.00;;
62798;SDS011;48842;51.046;13.796;2023-02-28T04:58:35;11.45;;;9.00;;
62798;SDS011;48842;51.046;13.796;2023-02-28T05:01:16;10.53;;;9.40;;
62798;SDS011;48842;51.046;13.796;2023-02-28T05:03:56;10.82;;;8.95;;
62798;SDS011;48842;51.046;13.796;2023-02-28T05:06:24;11.88;;;9.60;;
62798;SDS011;48842;51.046;13.796;2023-02-28T05:08:51;8.98;;;8.05;;
62798;SDS011;48842;51.046;13.796;2023-02-28T05:11:21;11.07;;;9.05;;
62798;SDS011;48842;51.046;13.796;2023-02-28T05:13:49;12.15;;;9.02;;
62798;SDS011;48842;51.046;13.796;2023-02-28T05:16:15;14.50;;;9.73;;
62798;SDS011;48842;51.046;13.796;2023-02-28T05:18:42;21.17;;;9.60;;
62798;SDS011;48842;51.046;13.796;2023-02-28T05:23:45;12.55;;;10.15;;
62798;SDS011;48842;51.046;13.796;2023-02-28T05:26:10;10.13;;;8.80;;
62798;SDS011;48842;51.046;13.796;2023-02-28T05:28:35;12.10;;;9.40;;
62798;SDS011;48842;51.046;13.796;2023-02-28T05:31:01;11.20;;;9.65;;
62798;SDS011;48842;51.046;13.796;2023-02-28T05:33:27;13.30;;;9.00;;
62798;SDS011;48842;51.046;13.796;2023-02-28T05:35:52;13.73;;;9.53;;
62798;SDS011;48842;51.046;13.796;2023-02-28T05:38:17;13.67;;;10.50;;
62798;SDS011;48842;51.046;13.796;2023-02-28T05:40:42;17.53;;;11.30;;
62798;SDS011;48842;51.046;13.796;2023-02-28T05:43:09;14.80;;;10.17;;
62798;SDS011;48842;51.046;13.796;2023-02-28T05:45:35;10.07;;;9.07;;
62798;SDS011;48842;51.046;13.796;2023-02-28T05:48:00;15.37;;;11.37;;
62798;SDS011;48842;51.046;13.796;2023-02-28T05:50:26;14.60;;;9.40;;
62798;SDS011;48842;51.046;13.796;2023-02-28T05:52:51;12.40;;;9.63;;
62798;SDS011;48842;51.046;13.796;2023-02-28T05:55:17;11.73;;;10.00;;
62798;SDS011;48842;51.046;13.796;2023-02-28T05:57:43;12.55;;;9.70;;
62798;SDS011;48842;51.046;13.796;2023-02-28T06:00:08;17.63;;;10.13;;
62798;SDS011;48842;51.046;13.796;2023-02-28T06:02:34;12.13;;;10.15;;
62798;SDS011;48842;51.046;13.796;2023-02-28T06:04:59;15.27;;;10.33;;
62798;SDS011;48842;51.046;13.796;2023-02-28T06:07:25;15.00;;;10.37;;
62798;SDS011;48842;51.046;13.796;2023-02-28T06:09:50;14.20;;;9.70;;
62798;SDS011;48842;51.046;13.796;2023-02-28T06:12:15;15.50;;;9.70;;
62798;SDS011;48842;51.046;13.796;2023-02-28T06:14:40;13.20;;;10.20;;
62798;SDS011;48842;51.046;13.796;2023-02-28T06:17:06;12.20;;;10.80;;
62798;SDS011;48842;51.046;13.796;2023-02-28T06:19:31;13.70;;;10.13;;
62798;SDS011;48842;51.046;13.796;2023-02-28T06:21:56;16.23;;;10.63;;
62798;SDS011;48842;51.046;13.796;2023-02-28T06:24:23;10.67;;;8.47;;
62798;SDS011;48842;51.046;13.796;2023-02-28T06:26:49;17.00;;;11.48;;
62798;SDS011;48842;51.046;13.796;2023-02-28T06:29:15;14.73;;;11.77;;
62798;SDS011;48842;51.046;13.796;2023-02-28T06:31:43;14.45;;;11.60;;
62798;SDS011;48842;51.046;13.796;2023-02-28T06:34:10;16.48;;;11.32;;
62798;SDS011;48842;51.046;13.796;2023-02-28T06:36:37;13.18;;;10.32;;
62798;SDS011;48842;51.046;13.796;2023-02-28T06:39:03;14.40;;;10.65;;
62798;SDS011;48842;51.046;13.796;2023-02-28T06:41:28;18.57;;;12.33;;
62798;SDS011;48842;51.046;13.796;2023-02-28T06:43:53;18.73;;;12.03;;
62798;SDS011;48842;51.046;13.796;2023-02-28T06:46:19;19.07;;;11.67;;
62798;SDS011;48842;51.046;13.796;2023-02-28T06:48:45;19.07;;;13.17;;
62798;SDS011;48842;51.046;13.796;2023-02-28T06:51:17;14.85;;;11.48;;
62798;SDS011;48842;51.046;13.796;2023-02-28T06:53:45;15.00;;;11.48;;
62798;SDS011;48842;51.046;13.796;2023-02-28T06:56:11;13.90;;;10.83;;
62798;SDS011;48842;51.046;13.796;2023-02-28T06:58:38;18.02;;;11.15;;
62798;SDS011;48842;51.046;13.796;2023-02-28T07:01:04;18.03;;;13.80;;
62798;SDS011;48842;51.046;13.796;2023-02-28T07:03:30;23.77;;;15.95;;
62798;SDS011;48842;51.046;13.796;2023-02-28T07:05:56;17.00;;;12.67;;
62798;SDS011;48842;51.046;13.796;2023-02-28T07:08:22;18.60;;;13.40;;
62798;SDS011;48842;51.046;13.796;2023-02-28T07:10:51;15.80;;;10.82;;
62798;SDS011;48842;51.046;13.796;2023-02-28T07:13:16;12.13;;;9.93;;
62798;SDS011;48842;51.046;13.796;2023-02-28T07:15:42;11.53;;;9.30;;
62798;SDS011;48842;51.046;13.796;2023-02-28T07:18:07;23.60;;;9.80;;
62798;SDS011;48842;51.046;13.796;2023-02-28T07:20:32;15.50;;;9.90;;
62798;SDS011;48842;51.046;13.796;2023-02-28T07:22:57;14.37;;;11.10;;
62798;SDS011;48842;51.046;13.796;2023-02-28T07:25:23;14.30;;;9.67;;
62798;SDS011;48842;51.046;13.796;2023-02-28T07:27:53;13.93;;;10.73;;
62798;SDS011;48842;51.046;13.796;2023-02-28T07:30:20;14.05;;;9.60;;
62798;SDS011;48842;51.046;13.796;2023-02-28T07:32:45;17.00;;;10.17;;
62798;SDS011;48842;51.046;13.796;2023-02-28T07:35:10;16.60;;;10.90;;
62798;SDS011;48842;51.046;13.796;2023-02-28T07:37:36;15.47;;;9.67;;
62798;SDS011;48842;51.046;13.796;2023-02-28T07:40:05;12.17;;;10.27;;
62798;SDS011;48842;51.046;13.796;2023-02-28T07:42:34;13.43;;;9.77;;
62798;SDS011;48842;51.046;13.796;2023-02-28T07:45:00;16.30;;;10.82;;
62798;SDS011;48842;51.046;13.796;2023-02-28T07:47:26;17.37;;;10.43;;
62798;SDS011;48842;51.046;13.796;2023-02-28T07:49:51;13.20;;;9.40;;
62798;SDS011;48842;51.046;13.796;2023-02-28T07:52:16;13.10;;;8.77;;
62798;SDS011;48842;51.046;13.796;2023-02-28T07:54:42;11.40;;;8.53;;
62798;SDS011;48842;51.046;13.796;2023-02-28T07:57:07;14.47;;;9.37;;
62798;SDS011;48842;51.046;13.796;2023-02-28T07:59:33;11.33;;;8.70;;
62798;SDS011;48842;51.046;13.796;2023-02-28T08:01:58;12.37;;;8.60;;
62798;SDS011;48842;51.046;13.796;2023-02-28T08:04:24;12.20;;;9.57;;
62798;SDS011;48842;51.046;13.796;2023-02-28T08:06:50;14.10;;;8.77;;
62798;SDS011;48842;51.046;13.796;2023-02-28T08:09:17;25.20;;;10.32;;
62798;SDS011;48842;51.046;13.796;2023-02-28T08:11:43;13.27;;;10.30;;
62798;SDS011;48842;51.046;13.796;2023-02-28T08:14:08;13.50;;;8.03;;
62798;SDS011;48842;51.046;13.796;2023-02-28T08:16:34;13.93;;;9.10;;
62798;SDS011;48842;51.046;13.796;2023-02-28T08:18:59;11.60;;;9.03;;
62798;SDS011;48842;51.046;13.796;2023-02-28T08:21:24;17.33;;;9.40;;
62798;SDS011;48842;51.046;13.796;2023-02-28T08:23:50;14.73;;;10.33;;
62798;SDS011;48842;51.046;13.796;2023-02-28T08:26:19;13.13;;;9.55;;
62798;SDS011;48842;51.046;13.796;2023-02-28T08:28:44;14.65;;;10.60;;
62798;SDS011;48842;51.046;13.796;2023-02-28T08:31:10;17.07;;;9.47;;
62798;SDS011;48842;51.046;13.796;2023-02-28T08:33:38;15.23;;;9.88;;
62798;SDS011;48842;51.046;13.796;2023-02-28T08:36:04;14.30;;;9.98;;
62798;SDS011;48842;51.046;13.796;2023-02-28T08:38:31;13.95;;;9.90;;
62798;SDS011;48842;51.046;13.796;2023-02-28T08:40:57;11.63;;;9.33;;
62798;SDS011;48842;51.046;13.796;2023-02-28T08:43:24;14.75;;;10.45;;
62798;SDS011;48842;51.046;13.796;2023-02-28T08:45:51;13.70;;;9.83;;
62798;SDS011;48842;51.046;13.796;2023-02-28T08:48:17;10.90;;;9.25;;
62798;SDS011;48842;51.046;13.796;2023-02-28T08:50:42;21.00;;;9.90;;
62798;SDS011;48842;51.046;13.796;2023-02-28T08:53:07;12.87;;;10.03;;
62798;SDS011;48842;51.046;13.796;2023-02-28T08:55:32;15.20;;;10.73;;
62798;SDS011;48842;51.046;13.796;2023-02-28T08:57:58;13.63;;;9.73;;
62798;SDS011;48842;51.046;13.796;2023-02-28T09:00:23;13.57;;;8.97;;
62798;SDS011;48842;51.046;13.796;2023-02-28T09:02:48;15.23;;;10.00;;
62798;SDS011;48842;51.046;13.796;2023-02-28T09:05:13;10.83;;;8.93;;
62798;SDS011;48842;51.046;13.796;2023-02-28T09:07:39;16.63;;;9.57;;
62798;SDS011;48842;51.046;13.796;2023-02-28T09:10:04;14.33;;;9.57;;
62798;SDS011;48842;51.046;13.796;2023-02-28T09:12:32;14.43;;;10.47;;
62798;SDS011;48842;51.046;13.796;2023-02-28T09:14:59;18.90;;;10.70;;
62798;SDS011;48842;51.046;13.796;2023-02-28T09:17:24;11.60;;;10.07;;
62798;SDS011;48842;51.046;13.796;2023-02-28T09:19:50;14.97;;;10.40;;
62798;SDS011;48842;51.046;13.796;2023-02-28T09:22:15;13.57;;;9.77;;
62798;SDS011;48842;51.046;13.796;2023-02-28T09:24:40;11.50;;;9.47;;
62798;SDS011;48842;51.046;13.796;2023-02-28T09:27:06;21.47;;;9.67;;
62798;SDS011;48842;51.046;13.796;2023-02-28T09:29:32;12.53;;;9.40;;
62798;SDS011;48842;51.046;13.796;2023-02-28T09:31:59;23.13;;;9.10;;
62798;SDS011;48842;51.046;13.796;2023-02-28T09:34:25;11.50;;;8.47;;
62798;SDS011;48842;51.046;13.796;2023-02-28T09:36:52;8.73;;;6.93;;
62798;SDS011;48842;51.046;13.796;2023-02-28T09:39:19;11.60;;;7.67;;
62798;SDS011;48842;51.046;13.796;2023-02-28T09:41:46;13.60;;;8.47;;
62798;SDS011;48842;51.046;13.796;2023-02-28T09:44:19;10.73;;;6.33;;
62798;SDS011;48842;51.046;13.796;2023-02-28T09:46:51;10.83;;;8.47;;
62798;SDS011;48842;51.046;13.796;2023-02-28T09:49:23;8.37;;;7.37;;
62798;SDS011;48842;51.046;13.796;2023-02-28T09:51:55;10.10;;;8.40;;
62798;SDS011;48842;51.046;13.796;2023-02-28T09:54:24;16.00;;;7.00;;
62798;SDS011;48842;51.046;13.796;2023-02-28T09:56:59;10.80;;;7.00;;
62798;SDS011;48842;51.046;13.796;2023-02-28T10:09:46;10.63;;;6.70;;
62798;SDS011;48842;51.046;13.796;2023-02-28T10:12:14;8.00;;;7.20;;
62798;SDS011;48842;51.046;13.796;2023-02-28T10:14:42;9.27;;;7.20;;
62798;SDS011;48842;51.046;13.796;2023-02-28T10:17:19;10.97;;;7.30;;
62798;SDS011;48842;51.046;13.796;2023-02-28T10:22:24;8.10;;;7.00;;
62798;SDS011;48842;51.046;13.796;2023-02-28T10:24:54;11.00;;;8.37;;
62798;SDS011;48842;51.046;13.796;2023-02-28T10:27:28;11.00;;;8.97;;
62798;SDS011;48842;51.046;13.796;2023-02-28T10:29:56;10.40;;;7.90;;
62798;SDS011;48842;51.046;13.796;2023-02-28T10:32:28;13.57;;;8.83;;
62798;SDS011;48842;51.046;13.796;2023-02-28T10:37:33;11.67;;;9.13;;
62798;SDS011;48842;51.046;13.796;2023-02-28T10:40:03;15.17;;;9.20;;
62798;SDS011;48842;51.046;13.796;2023-02-28T10:45:21;10.90;;;9.20;;
62798;SDS011;48842;51.046;13.796;2023-02-28T10:47:49;9.07;;;7.93;;
62798;SDS011;48842;51.046;13.796;2023-02-28T10:53:48;9.97;;;8.97;;
62798;SDS011;48842;51.046;13.796;2023-02-28T10:58:54;11.73;;;8.60;;
62798;SDS011;48842;51.046;13.796;2023-02-28T11:01:33;11.93;;;8.27;;
62798;SDS011;48842;51.046;13.796;2023-02-28T11:04:00;8.80;;;7.90;;
62798;SDS011;48842;51.046;13.796;2023-02-28T11:06:26;10.80;;;8.47;;
62798;SDS011;48842;51.046;13.796;2023-02-28T11:08:56;13.10;;;8.80;;
62798;SDS011;48842;51.046;13.796;2023-02-28T11:11:24;11.60;;;9.47;;
62798;SDS011;48842;51.046;13.796;2023-02-28T11:13:53;11.40;;;9.63;;
62798;SDS011;48842;51.046;13.796;2023-02-28T11:16:20;15.83;;;9.37;;
62798;SDS011;48842;51.046;13.796;2023-02-28T11:18:50;11.00;;;9.47;;
62798;SDS011;48842;51.046;13.796;2023-02-28T11:21:29;12.27;;;9.03;;
62798;SDS011;48842;51.046;13.796;2023-02-28T11:24:02;9.00;;;8.10;;
62798;SDS011;48842;51.046;13.796;2023-02-28T11:26:44;15.30;;;9.33;;
62798;SDS011;48842;51.046;13.796;2023-02-28T11:29:12;10.30;;;7.63;;
62798;SDS011;48842;51.046;13.796;2023-02-28T11:31:44;9.03;;;7.70;;
62798;SDS011;48842;51.046;13.796;2023-02-28T11:34:26;11.67;;;7.80;;
62798;SDS011;48842;51.046;13.796;2023-02-28T11:36:53;9.73;;;7.93;;
62798;SDS011;48842;51.046;13.796;2023-02-28T11:39:22;13.73;;;7.73;;
62798;SDS011;48842;51.046;13.796;2023-02-28T11:41:53;10.07;;;7.50;;
62798;SDS011;48842;51.046;13.796;2023-02-28T11:44:33;9.33;;;7.33;;
62798;SDS011;48842;51.046;13.796;2023-02-28T12:01:02;8.87;;;7.80;;
62798;SDS011;48842;51.046;13.796;2023-02-28T12:11:40;8.57;;;7.63;;
62798;SDS011;48842;51.046;13.796;2023-02-28T12:14:29;11.10;;;8.10;;
62798;SDS011;48842;51.046;13.796;2023-02-28T12:17:20;9.93;;;8.30;;
62798;SDS011;48842;51.046;13.796;2023-02-28T12:20:08;9.90;;;8.00;;
62798;SDS011;48842;51.046;13.796;2023-02-28T12:25:35;10.43;;;8.30;;
62798;SDS011;48842;51.046;13.796;2023-02-28T12:28:24;11.07;;;8.23;;
62798;SDS011;48842;51.046;13.796;2023-02-28T12:31:09;11.20;;;8.37;;
62798;SDS011;48842;51.046;13.796;2023-02-28T12:33:45;11.00;;;7.63;;
62798;SDS011;48842;51.046;13.796;2023-02-28T12:36:14;13.27;;;9.50;;
62798;SDS011;48842;51.046;13.796;2023-02-28T12:39:00;12.90;;;9.30;;
62798;SDS011;48842;51.046;13.796;2023-02-28T12:41:33;14.77;;;10.17;;
62798;SDS011;48842;51.046;13.796;2023-02-28T12:44:06;14.97;;;9.57;;
62798;SDS011;48842;51.046;13.796;2023-02-28T12:46:38;10.27;;;8.53;;
62798;SDS011;48842;51.046;13.796;2023-02-28T12:49:13;12.87;;;10.43;;
62798;SDS011;48842;51.046;13.796;2023-02-28T12:51:57;12.00;;;9.17;;
62798;SDS011;48842;51.046;13.796;2023-02-28T12:57:10;16.43;;;10.17;;
62798;SDS011;48842;51.046;13.796;2023-02-28T13:00:18;13.13;;;9.63;;
62798;SDS011;48842;51.046;13.796;2023-02-28T13:02:52;11.23;;;9.10;;
62798;SDS011;48842;51.046;13.796;2023-02-28T13:08:12;12.50;;;8.93;;
62798;SDS011;48842;51.046;13.796;2023-02-28T13:10:49;13.57;;;9.07;;
62798;SDS011;48842;51.046;13.796;2023-02-28T13:13:29;10.87;;;9.73;;
62798;SDS011;48842;51.046;13.796;2023-02-28T13:18:46;12.47;;;9.87;;
62798;SDS011;48842;51.046;13.796;2023-02-28T13:21:27;14.53;;;10.83;;
62798;SDS011;48842;51.046;13.796;2023-02-28T13:24:04;12.50;;;10.10;;
62798;SDS011;48842;51.046;13.796;2023-02-28T13:29:04;11.80;;;9.80;;
62798;SDS011;48842;51.046;13.796;2023-02-28T13:34:30;19.00;;;10.80;;
62798;SDS011;48842;51.046;13.796;2023-02-28T13:39:58;13.27;;;10.63;;
62798;SDS011;48842;51.046;13.796;2023-02-28T13:47:41;15.43;;;11.63;;
62798;SDS011;48842;51.046;13.796;2023-02-28T13:53:08;12.30;;;10.77;;
62798;SDS011;48842;51.046;13.796;2023-02-28T14:07:32;13.97;;;11.60;;
62798;SDS011;48842;51.046;13.796;2023-02-28T14:10:05;15.67;;;12.67;;
62798;SDS011;48842;51.046;13.796;2023-02-28T14:18:20;17.83;;;12.10;;
62798;SDS011;48842;51.046;13.796;2023-02-28T14:20:55;14.07;;;11.23;;
62798;SDS011;48842;51.046;13.796;2023-02-28T14:32:01;15.80;;;11.70;;
62798;SDS011;48842;51.046;13.796;2023-02-28T14:34:38;17.90;;;11.80;;
62798;SDS011;48842;51.046;13.796;2023-02-28T14:37:25;13.70;;;11.07;;
62798;SDS011;48842;51.046;13.796;2023-02-28T14:39:54;15.10;;;12.57;;
62798;SDS011;48842;51.046;13.796;2023-02-28T14:42:39;13.40;;;12.00;;
62798;SDS011;48842;51.046;13.796;2023-02-28T14:45:17;17.80;;;12.67;;
62798;SDS011;48842;51.046;13.796;2023-02-28T14:47:43;16.13;;;13.47;;
62798;SDS011;48842;51.046;13.796;2023-02-28T14:50:17;15.90;;;12.27;;
62798;SDS011;48842;51.046;13.796;2023-02-28T14:52:51;13.67;;;11.93;;
62798;SDS011;48842;51.046;13.796;2023-02-28T14:55:18;14.23;;;12.73;;
62798;SDS011;48842;51.046;13.796;2023-02-28T14:58:00;16.17;;;12.60;;
62798;SDS011;48842;51.046;13.796;2023-02-28T15:00:32;15.67;;;12.40;;
62798;SDS011;48842;51.046;13.796;2023-02-28T15:02:59;16.27;;;12.47;;
62798;SDS011;48842;51.046;13.796;2023-02-28T15:05:27;17.00;;;13.30;;
62798;SDS011;48842;51.046;13.796;2023-02-28T15:08:02;18.10;;;13.67;;
62798;SDS011;48842;51.046;13.796;2023-02-28T15:10:29;18.47;;;12.27;;
62798;SDS011;48842;51.046;13.796;2023-02-28T15:12:56;15.57;;;12.67;;
62798;SDS011;48842;51.046;13.796;2023-02-28T15:15:40;17.57;;;13.03;;
62798;SDS011;48842;51.046;13.796;2023-02-28T15:18:15;15.50;;;12.80;;
62798;SDS011;48842;51.046;13.796;2023-02-28T15:20:45;15.47;;;12.33;;
62798;SDS011;48842;51.046;13.796;2023-02-28T15:23:12;15.70;;;12.10;;
62798;SDS011;48842;51.046;13.796;2023-02-28T15:25:40;18.57;;;12.10;;
62798;SDS011;48842;51.046;13.796;2023-02-28T15:28:09;21.83;;;13.10;;
62798;SDS011;48842;51.046;13.796;2023-02-28T15:30:53;16.73;;;12.83;;
62798;SDS011;48842;51.046;13.796;2023-02-28T15:33:28;16.83;;;12.33;;
62798;SDS011;48842;51.046;13.796;2023-02-28T15:36:11;18.80;;;12.40;;
62798;SDS011;48842;51.046;13.796;2023-02-28T15:38:45;13.27;;;11.57;;
62798;SDS011;48842;51.046;13.796;2023-02-28T15:41:29;16.37;;;12.50;;
62798;SDS011;48842;51.046;13.796;2023-02-28T15:44:15;15.10;;;12.30;;
62798;SDS011;48842;51.046;13.796;2023-02-28T15:46:56;25.23;;;12.80;;
62798;SDS011;48842;51.046;13.796;2023-02-28T15:49:26;16.73;;;12.13;;
62798;SDS011;48842;51.046;13.796;2023-02-28T15:51:53;19.80;;;12.17;;
62798;SDS011;48842;51.046;13.796;2023-02-28T15:54:23;15.37;;;12.37;;
62798;SDS011;48842;51.046;13.796;2023-02-28T15:56:53;15.50;;;11.90;;
62798;SDS011;48842;51.046;13.796;2023-02-28T15:59:22;24.67;;;12.40;;
62798;SDS011;48842;51.046;13.796;2023-02-28T16:04:34;17.23;;;11.70;;
62798;SDS011;48842;51.046;13.796;2023-02-28T16:07:01;20.90;;;12.30;;
62798;SDS011;48842;51.046;13.796;2023-02-28T16:09:30;20.90;;;12.40;;
62798;SDS011;48842;51.046;13.796;2023-02-28T16:11:58;16.50;;;12.60;;
62798;SDS011;48842;51.046;13.796;2023-02-28T16:14:29;16.67;;;12.60;;
62798;SDS011;48842;51.046;13.796;2023-02-28T16:17:03;15.97;;;12.40;;
62798;SDS011;48842;51.046;13.796;2023-02-28T16:19:30;19.87;;;13.17;;
62798;SDS011;48842;51.046;13.796;2023-02-28T16:21:56;15.83;;;12.00;;
62798;SDS011;48842;51.046;13.796;2023-02-28T16:24:21;17.70;;;12.03;;
62798;SDS011;48842;51.046;13.796;2023-02-28T16:26:47;16.57;;;12.13;;
62798;SDS011;48842;51.046;13.796;2023-02-28T16:29:29;18.30;;;12.37;;
62798;SDS011;48842;51.046;13.796;2023-02-28T16:31:59;15.77;;;13.27;;